createdAt,value
2018-12-05T00:00:35.773Z,3.13
2018-12-05T00:03:14.625Z,3.16
2018-12-05T00:05:50.597Z,3.17
2018-12-05T00:08:28.874Z,3.19
2018-12-05T00:11:03.308Z,3.17
2018-12-05T00:13:40.338Z,3.16
2018-12-05T00:16:17.692Z,3.16
2018-12-05T00:18:56.134Z,3.18
2018-12-05T00:21:32.652Z,3.20
2018-12-05T00:24:09.544Z,3.18
2018-12-05T00:26:46.316Z,3.16
2018-12-05T00:32:10.934Z,3.11
2018-12-05T00:34:47.974Z,3.10
2018-12-05T00:37:25.641Z,3.07
2018-12-05T00:40:01.996Z,3.02
2018-12-05T00:42:37.834Z,2.99
2018-12-05T00:45:13.448Z,2.92
2018-12-05T00:47:52.479Z,2.86
2018-12-05T00:50:30.686Z,2.78
2018-12-05T00:53:07.614Z,2.68
2018-12-05T00:55:45.366Z,2.56
2018-12-05T00:58:23.569Z,2.54
2018-12-05T01:00:59.262Z,2.48
2018-12-05T01:03:35.974Z,2.46
2018-12-05T01:06:13.952Z,2.45
2018-12-05T01:08:50.664Z,2.41
2018-12-05T01:11:28.239Z,2.34
2018-12-05T01:14:05.102Z,2.32
2018-12-05T01:16:42.109Z,2.29
2018-12-05T01:19:20.777Z,2.24
2018-12-05T01:21:58.428Z,2.21
2018-12-05T01:24:34.658Z,2.20
2018-12-05T01:27:04.259Z,2.18
2018-12-05T01:29:33.720Z,2.14
2018-12-05T01:34:53.673Z,2.12
2018-12-05T01:37:23.101Z,2.10
2018-12-05T01:39:52.491Z,2.13
2018-12-05T01:42:22.614Z,2.10
2018-12-05T01:44:57.129Z,2.06
2018-12-05T01:47:27.155Z,2.04
2018-12-05T01:49:56.575Z,2.00
2018-12-05T01:52:25.977Z,1.96
2018-12-05T01:54:55.393Z,1.93
2018-12-05T01:57:24.843Z,1.88
2018-12-05T01:59:54.330Z,1.90
2018-12-05T02:02:23.746Z,1.89
2018-12-05T02:04:56.631Z,1.84
2018-12-05T02:10:07.077Z,1.73
2018-12-05T02:12:36.556Z,1.70
2018-12-05T02:15:06.725Z,1.64
2018-12-05T02:17:36.143Z,1.64
2018-12-05T02:20:06.808Z,1.63
2018-12-05T02:22:36.191Z,1.61
2018-12-05T02:25:11.991Z,1.61
2018-12-05T02:27:41.454Z,1.60
2018-12-05T02:30:11.051Z,1.60
2018-12-05T02:32:41.304Z,1.60
2018-12-05T02:35:10.759Z,1.61
2018-12-05T02:37:40.117Z,1.62
2018-12-05T02:40:09.694Z,1.65
2018-12-05T02:42:39.074Z,1.65
2018-12-05T02:45:08.582Z,1.64
2018-12-05T02:47:37.926Z,1.64
2018-12-05T02:52:48.392Z,1.60
2018-12-05T02:55:17.745Z,1.58
2018-12-05T02:57:47.084Z,1.58
2018-12-05T03:00:16.519Z,1.56
2018-12-05T03:02:45.901Z,1.55
2018-12-05T03:05:15.635Z,1.52
2018-12-05T03:07:45.037Z,1.54
2018-12-05T03:10:14.480Z,1.56
2018-12-05T03:12:43.897Z,1.55
2018-12-05T03:16:16.089Z,1.51
2018-12-05T03:18:45.438Z,1.48
2018-12-05T03:21:14.938Z,1.47
2018-12-05T03:23:44.299Z,1.48
2018-12-05T03:26:13.652Z,1.50
2018-12-05T03:28:42.982Z,1.56
2018-12-05T03:31:12.357Z,1.60
2018-12-05T03:33:41.737Z,1.62
2018-12-05T03:36:11.210Z,1.65
2018-12-05T03:38:40.685Z,1.68
2018-12-05T03:41:10.199Z,1.70
2018-12-05T03:43:39.758Z,1.73
2018-12-05T03:46:09.188Z,1.76
2018-12-05T03:48:38.609Z,1.75
2018-12-05T03:51:07.977Z,1.76
2018-12-05T03:53:37.350Z,1.75
2018-12-05T03:56:06.971Z,1.75
2018-12-05T03:58:37.341Z,1.75
2018-12-05T04:01:08.173Z,1.76
2018-12-05T04:03:37.553Z,1.76
2018-12-05T04:06:06.893Z,1.75
2018-12-05T04:08:36.347Z,1.76
2018-12-05T04:11:06.121Z,1.66
2018-12-05T04:13:35.481Z,1.73
2018-12-05T04:16:06.280Z,1.72
2018-12-05T04:18:35.624Z,1.70
2018-12-05T04:21:06.223Z,1.69
2018-12-05T04:23:35.564Z,1.67
2018-12-05T04:31:07.261Z,1.59
2018-12-05T04:33:36.587Z,1.59
2018-12-05T04:36:06.022Z,1.57
2018-12-05T04:38:35.360Z,1.59
2018-12-05T04:41:05.957Z,1.61
2018-12-05T04:43:35.284Z,1.59
2018-12-05T04:46:04.608Z,1.61
2018-12-05T04:48:33.950Z,1.62
2018-12-05T04:51:03.333Z,1.64
2018-12-05T04:53:32.667Z,1.63
2018-12-05T04:56:02.756Z,1.66
2018-12-05T04:58:32.241Z,1.65
2018-12-05T05:01:01.577Z,1.66
2018-12-05T05:03:34.139Z,1.66
2018-12-05T05:06:03.525Z,1.68
2018-12-05T05:08:32.886Z,1.68
2018-12-05T05:11:02.269Z,1.66
2018-12-05T05:13:31.836Z,1.67
2018-12-05T05:16:01.157Z,1.68
2018-12-05T05:18:30.573Z,1.68
2018-12-05T05:20:59.912Z,1.68
2018-12-05T05:23:29.274Z,1.70
2018-12-05T05:25:58.627Z,1.71
2018-12-05T05:28:28.039Z,1.73
2018-12-05T05:30:57.358Z,1.74
2018-12-05T05:33:26.737Z,1.74
2018-12-05T05:38:25.685Z,1.74
2018-12-05T05:40:55.032Z,1.73
2018-12-05T05:46:56.004Z,1.69
2018-12-05T05:49:25.406Z,1.68
2018-12-05T05:51:54.779Z,1.66
2018-12-05T05:54:24.483Z,1.65
2018-12-05T05:56:53.881Z,1.63
2018-12-05T06:02:00.277Z,1.59
2018-12-05T06:04:29.648Z,1.58
2018-12-05T06:06:58.976Z,1.55
2018-12-05T06:09:28.297Z,1.53
2018-12-05T06:11:57.670Z,1.50
2018-12-05T06:14:26.978Z,1.48
2018-12-05T06:19:36.777Z,1.41
2018-12-05T06:22:06.091Z,1.44
2018-12-05T06:24:35.441Z,1.42
2018-12-05T06:27:06.069Z,1.40
2018-12-05T06:29:35.528Z,1.37
2018-12-05T06:32:06.114Z,1.39
2018-12-05T06:34:35.462Z,1.39
2018-12-05T06:39:35.790Z,1.43
2018-12-05T06:42:06.466Z,1.41
2018-12-05T06:44:35.796Z,1.38
2018-12-05T06:47:05.989Z,1.41
2018-12-05T06:49:35.356Z,1.43
2018-12-05T06:57:05.061Z,1.40
2018-12-05T06:59:34.474Z,1.41
2018-12-05T07:02:03.836Z,1.44
2018-12-05T07:04:33.165Z,1.45
2018-12-05T07:07:02.571Z,1.45
2018-12-05T07:09:31.938Z,1.48
2018-12-05T07:12:01.281Z,1.49
2018-12-05T07:14:30.642Z,1.50
2018-12-05T07:16:59.995Z,1.49
2018-12-05T07:19:29.430Z,1.48
2018-12-05T07:21:59.134Z,1.51
2018-12-05T07:24:28.626Z,1.51
2018-12-05T07:26:58.049Z,1.51
2018-12-05T07:29:27.604Z,1.51
2018-12-05T07:31:57.370Z,1.53
2018-12-05T07:34:26.745Z,1.55
2018-12-05T07:36:56.131Z,1.56
2018-12-05T07:39:25.493Z,1.55
2018-12-05T07:41:54.881Z,1.58
2018-12-05T07:44:24.277Z,1.59
2018-12-05T07:46:53.733Z,1.59
2018-12-05T07:49:23.167Z,1.61
2018-12-05T07:54:34.266Z,1.62
2018-12-05T07:57:03.632Z,1.66
2018-12-05T07:59:33.074Z,1.70
2018-12-05T08:02:02.462Z,1.73
2018-12-05T08:04:31.896Z,1.77
2018-12-05T08:09:42.353Z,1.82
2018-12-05T08:12:12.500Z,1.84
2018-12-05T08:14:41.874Z,1.86
2018-12-05T08:17:11.349Z,1.91
2018-12-05T08:19:40.705Z,1.95
2018-12-05T08:22:10.136Z,1.98
2018-12-05T08:24:39.520Z,2.02
2018-12-05T08:27:08.943Z,2.05
2018-12-05T08:29:38.377Z,1.81
2018-12-05T08:32:07.784Z,2.14
2018-12-05T08:34:37.213Z,2.18
2018-12-05T08:37:06.652Z,2.22
2018-12-05T08:39:36.223Z,2.27
2018-12-05T08:42:06.325Z,2.32
2018-12-05T08:44:35.683Z,2.36
2018-12-05T08:47:06.341Z,2.39
2018-12-05T08:49:36.400Z,2.44
2018-12-05T08:52:06.534Z,2.46
2018-12-05T08:54:35.891Z,2.51
2018-12-05T08:57:07.241Z,2.55
2018-12-05T08:59:36.603Z,2.56
2018-12-05T09:02:06.423Z,2.60
2018-12-05T09:04:35.956Z,2.64
2018-12-05T09:07:06.355Z,2.67
2018-12-05T09:09:35.820Z,2.69
2018-12-05T09:12:05.283Z,2.74
2018-12-05T09:14:34.702Z,2.78
2018-12-05T09:17:04.123Z,2.81
2018-12-05T09:19:33.644Z,2.83
2018-12-05T09:22:03.054Z,2.88
2018-12-05T09:24:32.404Z,2.90
2018-12-05T09:27:01.772Z,2.95
2018-12-05T09:29:31.143Z,2.99
2018-12-05T09:32:00.699Z,3.04
2018-12-05T09:34:30.090Z,3.07
2018-12-05T09:36:59.450Z,3.09
2018-12-05T09:39:28.811Z,3.11
2018-12-05T09:41:58.157Z,3.12
2018-12-05T09:44:27.504Z,3.17
2018-12-05T09:46:56.854Z,3.20
2018-12-05T09:49:26.181Z,3.26
2018-12-05T09:51:55.566Z,3.33
2018-12-05T09:54:24.948Z,3.42
2018-12-05T09:56:54.442Z,3.49
2018-12-05T09:59:23.856Z,3.59
2018-12-05T10:01:53.353Z,3.65
2018-12-05T10:04:22.869Z,3.73
2018-12-05T10:06:52.563Z,3.80
2018-12-05T10:09:22.064Z,3.88
2018-12-05T10:11:51.491Z,3.92
2018-12-05T10:14:20.891Z,4.00
2018-12-05T10:16:50.586Z,4.06
2018-12-05T10:19:20.449Z,4.12
2018-12-05T10:21:50.381Z,4.15
2018-12-05T10:24:19.998Z,4.23
2018-12-05T10:26:49.589Z,4.29
2018-12-05T10:29:19.240Z,4.34
2018-12-05T10:31:48.765Z,4.39
2018-12-05T10:34:18.388Z,4.47
2018-12-05T10:36:48.610Z,4.54
2018-12-05T10:39:18.247Z,4.63
2018-12-05T10:41:48.079Z,4.68
2018-12-05T10:44:17.711Z,4.73
2018-12-05T10:46:47.449Z,4.81
2018-12-05T10:49:17.235Z,4.89
2018-12-05T10:51:46.834Z,4.94
2018-12-05T10:54:16.424Z,5.00
2018-12-05T10:56:46.100Z,5.06
2018-12-05T10:59:15.818Z,5.13
2018-12-05T11:03:56.828Z,5.23
2018-12-05T11:08:35.739Z,5.25
2018-12-05T11:11:12.126Z,5.24
2018-12-05T11:13:46.749Z,5.32
2018-12-05T11:16:21.556Z,5.39
2018-12-05T11:18:56.022Z,5.46
2018-12-05T11:21:30.527Z,5.53
2018-12-05T11:24:09.022Z,5.58
2018-12-05T11:26:40.326Z,5.58
2018-12-05T11:29:09.668Z,5.58
2018-12-05T11:31:39.040Z,5.57
2018-12-05T11:34:08.428Z,5.57
2018-12-05T11:36:37.821Z,5.58
2018-12-05T11:39:09.109Z,5.61
2018-12-05T11:41:38.503Z,5.61
2018-12-05T11:44:07.892Z,5.73
2018-12-05T11:46:37.259Z,5.80
2018-12-05T11:49:07.136Z,5.84
2018-12-05T11:51:36.531Z,5.91
2018-12-05T11:54:06.313Z,5.98
2018-12-05T11:56:35.705Z,6.03
2018-12-05T12:01:47.785Z,6.15
2018-12-05T12:04:17.256Z,6.19
2018-12-05T12:06:46.642Z,6.22
2018-12-05T12:09:16.190Z,6.25
2018-12-05T12:11:45.642Z,6.26
2018-12-05T12:14:15.074Z,6.30
2018-12-05T12:16:44.420Z,6.35
2018-12-05T12:19:13.812Z,6.40
2018-12-05T12:21:44.301Z,6.44
2018-12-05T12:26:54.417Z,6.47
2018-12-05T12:29:23.925Z,6.49
2018-12-05T12:31:54.225Z,6.51
2018-12-05T12:34:24.197Z,6.52
2018-12-05T12:36:53.589Z,6.58
2018-12-05T12:39:24.098Z,6.60
2018-12-05T12:41:53.848Z,6.63
2018-12-05T12:44:23.278Z,6.67
2018-12-05T12:46:52.637Z,6.70
2018-12-05T12:49:23.106Z,6.69
2018-12-05T12:51:52.622Z,6.69
2018-12-05T12:54:22.191Z,6.71
2018-12-05T12:56:51.556Z,6.73
2018-12-05T12:59:21.017Z,6.73
2018-12-05T13:01:50.415Z,6.74
2018-12-05T13:04:20.214Z,6.74
2018-12-05T13:06:49.681Z,6.71
2018-12-05T13:09:19.105Z,6.75
2018-12-05T13:11:48.574Z,6.78
2018-12-05T13:14:17.963Z,6.81
2018-12-05T13:16:47.450Z,6.83
2018-12-05T13:19:16.926Z,6.85
2018-12-05T13:21:46.290Z,6.87
2018-12-05T13:24:15.695Z,6.89
2018-12-05T13:26:45.430Z,6.91
2018-12-05T13:29:14.947Z,6.89
2018-12-05T13:31:44.353Z,6.87
2018-12-05T13:34:13.834Z,6.81
2018-12-05T13:36:43.302Z,6.78
2018-12-05T13:39:12.833Z,6.74
2018-12-05T13:41:42.205Z,6.73
2018-12-05T13:44:11.621Z,6.72
2018-12-05T13:46:40.995Z,6.71
2018-12-05T13:49:10.434Z,6.70
2018-12-05T13:51:40.007Z,6.67
2018-12-05T13:54:09.403Z,6.67
2018-12-05T13:56:38.752Z,6.67
2018-12-05T14:01:49.403Z,6.69
2018-12-05T14:04:18.822Z,6.71
2018-12-05T14:06:48.152Z,6.71
2018-12-05T14:09:17.727Z,6.70
2018-12-05T14:11:47.052Z,6.70
2018-12-05T14:14:16.540Z,6.71
2018-12-05T14:16:45.990Z,6.70
2018-12-05T14:19:15.446Z,6.66
2018-12-05T14:21:44.918Z,6.66
2018-12-05T14:24:14.342Z,6.63
2018-12-05T14:26:43.696Z,6.62
2018-12-05T14:29:13.099Z,6.61
2018-12-05T14:31:45.026Z,6.58
2018-12-05T14:34:15.795Z,6.55
2018-12-05T14:36:45.180Z,6.54
2018-12-05T14:41:55.215Z,6.50
2018-12-05T14:44:24.656Z,6.47
2018-12-05T14:46:54.035Z,6.46
2018-12-05T14:49:23.397Z,6.44
2018-12-05T14:51:52.799Z,6.42
2018-12-05T14:54:22.288Z,6.42
2018-12-05T14:56:51.636Z,6.38
2018-12-05T14:59:21.155Z,6.39
2018-12-05T15:01:50.592Z,6.38
2018-12-05T15:04:20.009Z,6.38
2018-12-05T15:06:49.369Z,6.37
2018-12-05T15:09:19.270Z,6.36
2018-12-05T15:11:48.653Z,6.36
2018-12-05T15:14:18.028Z,6.35
2018-12-05T15:16:47.477Z,6.34
2018-12-05T15:19:16.852Z,6.35
2018-12-05T15:21:46.216Z,6.35
2018-12-05T15:24:15.862Z,6.35
2018-12-05T15:26:45.217Z,6.36
2018-12-05T15:29:14.553Z,6.36
2018-12-05T15:31:43.912Z,6.36
2018-12-05T15:34:13.340Z,6.36
2018-12-05T15:36:42.776Z,6.36
2018-12-05T15:39:12.366Z,6.37
2018-12-05T15:41:41.875Z,6.37
2018-12-05T15:46:42.925Z,6.41
2018-12-05T15:49:12.437Z,6.41
2018-12-05T15:51:42.059Z,6.40
2018-12-05T15:54:11.551Z,6.43
2018-12-05T15:56:41.207Z,6.44
2018-12-05T15:59:10.763Z,6.44
2018-12-05T16:01:40.278Z,6.43
2018-12-05T16:04:09.798Z,6.47
2018-12-05T16:06:39.418Z,6.48
2018-12-05T16:09:09.722Z,6.50
2018-12-05T16:11:39.534Z,6.48
2018-12-05T16:14:09.323Z,6.54
2018-12-05T16:16:39.262Z,6.54
2018-12-05T16:19:08.798Z,6.55
2018-12-05T16:24:15.055Z,6.60
2018-12-05T16:26:44.395Z,6.58
2018-12-05T16:29:13.796Z,6.56
2018-12-05T16:31:43.129Z,6.57
2018-12-05T16:34:12.480Z,6.58
2018-12-05T16:36:41.859Z,6.58
2018-12-05T16:39:11.363Z,6.60
2018-12-05T16:41:40.714Z,6.60
2018-12-05T16:44:13.010Z,6.61
2018-12-05T16:46:41.447Z,6.62
2018-12-05T16:49:10.764Z,6.60
2018-12-05T16:51:40.125Z,6.64
2018-12-05T16:54:09.682Z,6.64
2018-12-05T16:56:39.045Z,6.64
2018-12-05T16:59:08.371Z,6.65
2018-12-05T17:01:37.721Z,6.64
2018-12-05T17:04:07.264Z,6.64
2018-12-05T17:06:36.691Z,6.63
2018-12-05T17:09:08.235Z,6.65
2018-12-05T17:11:37.600Z,6.65
2018-12-05T17:14:07.161Z,6.65
2018-12-05T17:16:36.518Z,6.60
2018-12-05T17:19:06.096Z,6.65
2018-12-05T17:21:35.451Z,6.67
2018-12-05T17:24:06.065Z,6.69
2018-12-05T17:26:35.432Z,6.68
2018-12-05T17:29:06.113Z,6.69
2018-12-05T17:31:35.516Z,6.70
2018-12-05T17:34:06.170Z,6.71
2018-12-05T17:36:35.618Z,6.71
2018-12-05T17:39:09.455Z,6.72
2018-12-05T17:41:38.787Z,6.71
2018-12-05T17:44:08.173Z,6.72
2018-12-05T17:46:37.551Z,6.71
2018-12-05T17:49:07.003Z,6.72
2018-12-05T17:51:36.350Z,6.70
2018-12-05T17:54:06.292Z,6.64
2018-12-05T17:56:35.614Z,6.70
2018-12-05T17:59:06.226Z,6.71
2018-12-05T18:01:35.575Z,6.72
2018-12-05T18:04:06.206Z,6.73
2018-12-05T18:06:35.685Z,6.73
2018-12-05T18:09:09.017Z,6.67
2018-12-05T18:11:38.353Z,6.75
2018-12-05T18:14:07.800Z,6.76
2018-12-05T18:16:37.137Z,6.76
2018-12-05T18:19:06.774Z,6.76
2018-12-05T18:21:36.567Z,6.76
2018-12-05T18:24:06.315Z,6.77
2018-12-05T18:26:35.663Z,6.76
2018-12-05T18:29:06.405Z,6.76
2018-12-05T18:31:35.775Z,6.77
2018-12-05T18:34:06.465Z,6.78
2018-12-05T18:36:35.793Z,6.79
2018-12-05T18:39:08.225Z,6.80
2018-12-05T18:41:37.679Z,6.81
2018-12-05T18:44:07.054Z,6.82
2018-12-05T18:46:36.584Z,6.84
2018-12-05T18:49:06.439Z,6.85
2018-12-05T18:51:35.769Z,6.88
2018-12-05T18:54:06.409Z,6.89
2018-12-05T18:56:35.927Z,6.92
2018-12-05T18:59:06.559Z,6.95
2018-12-05T19:01:35.888Z,6.96
2018-12-05T19:04:06.098Z,6.94
2018-12-05T19:06:35.414Z,6.97
2018-12-05T19:09:07.796Z,6.98
2018-12-05T19:11:37.404Z,7.00
2018-12-05T19:14:12.049Z,7.01
2018-12-05T19:16:41.391Z,7.01
2018-12-05T19:19:10.931Z,7.02
2018-12-05T19:21:40.268Z,7.05
2018-12-05T19:24:09.806Z,7.07
2018-12-05T19:26:39.274Z,7.08
2018-12-05T19:29:08.650Z,7.11
2018-12-05T19:31:38.046Z,7.12
2018-12-05T19:34:07.517Z,7.13
2018-12-05T19:36:36.885Z,7.13
2018-12-05T19:39:09.358Z,7.15
2018-12-05T19:44:14.543Z,7.15
2018-12-05T19:46:45.805Z,7.12
2018-12-05T19:49:16.034Z,7.14
2018-12-05T19:51:45.615Z,7.14
2018-12-05T19:54:15.329Z,7.12
2018-12-05T19:56:45.142Z,7.13
2018-12-05T19:59:17.090Z,7.09
2018-12-05T20:01:46.911Z,7.07
2018-12-05T20:04:16.509Z,7.06
2018-12-05T20:06:46.131Z,7.05
2018-12-05T20:09:15.739Z,7.04
2018-12-05T20:11:45.535Z,7.04
2018-12-05T20:14:20.599Z,7.06
2018-12-05T20:16:50.288Z,7.05
2018-12-05T20:19:20.518Z,7.06
2018-12-05T20:21:50.336Z,7.07
2018-12-05T20:24:20.132Z,7.08
2018-12-05T20:26:49.754Z,7.09
2018-12-05T20:29:19.403Z,7.09
2018-12-05T20:31:49.128Z,7.06
2018-12-05T20:34:18.754Z,7.09
2018-12-05T20:36:48.900Z,7.10
2018-12-05T20:39:25.693Z,7.11
2018-12-05T20:41:49.948Z,7.08
2018-12-05T20:44:20.621Z,7.13
2018-12-05T20:46:50.328Z,7.12
2018-12-05T20:49:19.957Z,7.13
2018-12-05T20:51:49.501Z,7.13
2018-12-05T20:54:19.195Z,7.14
2018-12-05T20:56:48.924Z,7.15
2018-12-05T20:59:18.661Z,7.17
2018-12-05T21:01:48.243Z,7.16
2018-12-05T21:04:17.948Z,7.17
2018-12-05T21:06:47.478Z,7.17
2018-12-05T21:09:17.078Z,7.18
2018-12-05T21:11:46.694Z,7.19
2018-12-05T21:14:16.300Z,7.20
2018-12-05T21:16:46.027Z,7.21
2018-12-05T21:22:30.169Z,7.35
2018-12-05T21:24:59.852Z,7.36
2018-12-05T21:27:29.550Z,7.34
2018-12-05T21:29:59.373Z,7.37
2018-12-05T21:32:29.213Z,7.36
2018-12-05T21:34:59.347Z,7.38
2018-12-05T21:37:29.241Z,7.43
2018-12-05T21:39:58.837Z,7.42
2018-12-05T21:42:29.654Z,7.46
2018-12-05T21:44:59.390Z,7.46
2018-12-05T21:47:29.101Z,7.48
2018-12-05T21:52:44.300Z,7.51
2018-12-05T21:55:14.448Z,7.51
2018-12-05T22:00:21.447Z,7.56
2018-12-05T22:05:22.962Z,7.56
2018-12-05T22:07:56.970Z,7.57
2018-12-05T22:10:26.877Z,7.58
2018-12-05T22:12:56.809Z,7.58
2018-12-05T22:15:26.504Z,7.58
2018-12-05T22:17:57.006Z,7.58
2018-12-05T22:20:26.781Z,7.59
2018-12-05T22:22:56.198Z,7.60
2018-12-05T22:25:25.703Z,7.58
2018-12-05T22:27:55.122Z,7.59
2018-12-05T22:30:24.473Z,7.59
2018-12-05T22:32:53.914Z,7.57
2018-12-05T22:35:23.293Z,7.58
2018-12-05T22:37:52.654Z,7.57
2018-12-05T22:40:23.011Z,7.58
2018-12-05T22:42:52.927Z,7.57
2018-12-05T22:45:22.414Z,7.55
2018-12-05T22:47:51.725Z,7.56
2018-12-05T22:50:21.476Z,7.56
2018-12-05T22:52:50.820Z,7.55
2018-12-05T22:55:20.265Z,7.54
2018-12-05T22:57:49.613Z,7.52
2018-12-05T23:00:24.360Z,7.52
2018-12-05T23:02:53.733Z,7.51
2018-12-05T23:05:23.215Z,7.49
2018-12-05T23:07:52.551Z,7.51
2018-12-05T23:10:22.074Z,7.50
2018-12-05T23:12:51.536Z,7.51
2018-12-05T23:15:20.958Z,7.52
2018-12-05T23:17:50.293Z,7.50
2018-12-05T23:20:19.767Z,7.53
2018-12-05T23:22:49.157Z,7.53
2018-12-05T23:25:28.414Z,7.54
2018-12-05T23:27:58.576Z,7.55
2018-12-05T23:30:27.913Z,7.54
2018-12-05T23:32:57.620Z,7.56
2018-12-05T23:35:27.004Z,7.56
2018-12-05T23:37:56.475Z,7.56
2018-12-05T23:40:25.809Z,7.57
2018-12-05T23:42:56.423Z,7.59
2018-12-05T23:45:25.761Z,7.60
2018-12-05T23:47:56.042Z,7.61
2018-12-05T23:50:25.453Z,7.63
2018-12-05T23:52:54.824Z,7.64
2018-12-05T23:55:25.752Z,7.66
2018-12-05T23:57:55.101Z,7.66
